Time;durP1;ratioP1;P1;durP2;ratioP2;P2;SDS_P1;SDS_P2;PMS_P1;PMS_P2;Temp;Humidity;BMP_temperature;BMP_pressure;BME280_temperature;BME280_humidity;BME280_pressure;Samples;Min_cycle;Max_cycle;Signal;HPM_P1;HPM_P2
2023/05/19 00:00:17;;;;;;;4.78;2.30;;;9.30;99.90;;;;;;5057337;28;20497;-84
2023/05/19 00:02:43;;;;;;;5.45;2.50;;;9.30;99.90;;;;;;5047483;28;20040;-84
2023/05/19 00:05:11;;;;;;;5.82;2.33;;;9.20;99.90;;;;;;5037033;28;20409;-84
2023/05/19 00:07:38;;;;;;;4.13;2.42;;;9.10;99.90;;;;;;5024493;28;20025;-84
2023/05/19 00:10:04;;;;;;;4.45;2.40;;;8.90;99.90;;;;;;5074958;28;20017;-83
2023/05/19 00:12:30;;;;;;;4.32;2.65;;;8.80;99.90;;;;;;5040848;28;20541;-83
2023/05/19 00:14:56;;;;;;;3.95;2.50;;;8.70;99.90;;;;;;5040318;28;20037;-83
2023/05/19 00:17:23;;;;;;;5.75;2.58;;;8.60;99.90;;;;;;5057439;28;20393;-83
2023/05/19 00:19:48;;;;;;;3.70;2.28;;;8.50;99.90;;;;;;5054844;28;20078;-83
2023/05/19 00:22:14;;;;;;;5.93;2.88;;;8.40;99.90;;;;;;5038153;28;20028;-83
2023/05/19 00:24:40;;;;;;;4.30;2.25;;;8.30;99.90;;;;;;5038450;28;20047;-83
2023/05/19 00:27:06;;;;;;;4.18;2.55;;;8.20;99.90;;;;;;5056799;28;20108;-83
2023/05/19 00:29:32;;;;;;;5.72;2.08;;;8.20;99.90;;;;;;5039311;28;20031;-83
2023/05/19 00:31:57;;;;;;;5.03;2.40;;;8.20;99.90;;;;;;5039969;28;20036;-83
2023/05/19 00:34:23;;;;;;;4.40;2.40;;;8.20;99.90;;;;;;5019191;28;20025;-83
2023/05/19 00:36:49;;;;;;;7.18;2.97;;;8.20;99.90;;;;;;5036886;28;20052;-84
2023/05/19 00:39:15;;;;;;;3.85;2.55;;;8.20;99.90;;;;;;5056686;28;20028;-83
2023/05/19 00:41:41;;;;;;;3.42;2.10;;;8.20;99.90;;;;;;5055965;28;20032;-84
2023/05/19 00:44:07;;;;;;;3.75;2.40;;;8.10;99.90;;;;;;5039507;28;20105;-83
2023/05/19 00:46:33;;;;;;;4.20;2.50;;;8.10;99.90;;;;;;5055370;28;20365;-83
2023/05/19 00:48:58;;;;;;;3.78;2.50;;;8.00;99.90;;;;;;5031241;28;20031;-83
2023/05/19 00:51:26;;;;;;;5.38;2.63;;;8.00;99.90;;;;;;5019316;28;20029;-83
2023/05/19 00:53:52;;;;;;;4.47;2.55;;;7.90;99.90;;;;;;5033654;28;20066;-84
2023/05/19 00:56:20;;;;;;;4.93;2.47;;;7.90;99.90;;;;;;5056437;28;20056;-83
2023/05/19 00:58:46;;;;;;;5.65;2.60;;;7.80;99.90;;;;;;5023590;28;20066;-83
2023/05/19 01:01:15;;;;;;;6.07;2.70;;;7.80;99.90;;;;;;5056670;28;20058;-84
2023/05/19 01:03:43;;;;;;;4.22;2.63;;;7.80;99.90;;;;;;5025534;28;20397;-84
2023/05/19 01:06:08;;;;;;;3.45;2.22;;;7.90;99.90;;;;;;5056155;28;20064;-83
2023/05/19 01:08:36;;;;;;;5.90;2.33;;;7.80;99.90;;;;;;5039588;28;20396;-84
2023/05/19 01:11:03;;;;;;;5.43;2.67;;;7.80;99.90;;;;;;5056026;28;20480;-83
2023/05/19 01:13:29;;;;;;;3.05;2.17;;;7.70;99.90;;;;;;5056559;28;20116;-83
2023/05/19 01:16:01;;;;;;;6.85;2.65;;;7.70;99.90;;;;;;5055905;28;20148;-83
2023/05/19 01:19:00;;;;;;;4.15;2.42;;;7.60;99.90;;;;;;5074270;28;20040;-83
2023/05/19 01:21:52;;;;;;;4.72;2.53;;;7.70;99.90;;;;;;5056105;28;20028;-83
2023/05/19 01:24:40;;;;;;;4.05;2.45;;;7.70;99.90;;;;;;5055994;28;20025;-83
2023/05/19 01:27:17;;;;;;;4.25;2.30;;;7.60;99.90;;;;;;5074277;28;20017;-84
2023/05/19 01:30:24;;;;;;;3.80;2.50;;;7.70;99.90;;;;;;5074180;28;20024;-83
2023/05/19 01:32:53;;;;;;;6.03;2.38;;;7.60;99.90;;;;;;5035312;28;20123;-83
2023/05/19 01:35:23;;;;;;;5.97;2.60;;;7.70;99.90;;;;;;5073772;28;20055;-83
2023/05/19 01:37:53;;;;;;;4.75;2.45;;;7.70;99.90;;;;;;5039225;28;20037;-83
2023/05/19 01:40:21;;;;;;;4.90;2.72;;;7.70;99.90;;;;;;5074404;28;20366;-83
2023/05/19 01:42:48;;;;;;;4.78;2.55;;;7.60;99.90;;;;;;5074189;28;20048;-83
2023/05/19 01:45:15;;;;;;;4.03;2.25;;;7.50;99.90;;;;;;5055711;28;20020;-83
2023/05/19 01:47:45;;;;;;;5.47;2.67;;;7.40;99.90;;;;;;5023766;28;20074;-83
2023/05/19 01:50:11;;;;;;;4.85;2.28;;;7.30;99.90;;;;;;5055109;28;20070;-83
2023/05/19 01:52:36;;;;;;;4.80;2.30;;;7.20;99.90;;;;;;5019571;28;20025;-83
2023/05/19 01:55:02;;;;;;;5.00;2.35;;;7.10;99.90;;;;;;5036118;28;20033;-83
2023/05/19 01:57:52;;;;;;;5.28;2.33;;;7.00;99.90;;;;;;5051912;28;20033;-83
2023/05/19 02:00:52;;;;;;;4.30;2.50;;;6.90;99.90;;;;;;5073694;28;20021;-83
2023/05/19 02:03:43;;;;;;;4.32;2.22;;;7.00;99.90;;;;;;5055940;28;20485;-84
2023/05/19 02:06:18;;;;;;;3.50;2.17;;;7.00;99.90;;;;;;5055848;28;20029;-83
2023/05/19 02:08:57;;;;;;;3.95;2.10;;;7.00;99.90;;;;;;5055447;28;20038;-83
2023/05/19 02:11:42;;;;;;;6.97;2.70;;;7.00;99.90;;;;;;5055946;28;20029;-83
2023/05/19 02:14:18;;;;;;;5.57;2.25;;;7.10;99.90;;;;;;5057067;28;20032;-84
2023/05/19 02:16:46;;;;;;;5.03;2.45;;;7.00;99.90;;;;;;5059524;28;20481;-83
2023/05/19 02:19:38;;;;;;;4.10;2.45;;;7.00;99.90;;;;;;5059326;28;20062;-83
2023/05/19 02:22:05;;;;;;;5.88;2.65;;;7.00;99.90;;;;;;5052285;28;20028;-84
2023/05/19 02:24:30;;;;;;;8.15;4.43;;;7.00;99.90;;;;;;5006563;28;20032;-84
2023/05/19 02:26:56;;;;;;;8.32;4.43;;;6.90;99.90;;;;;;5022764;28;20035;-83
2023/05/19 02:29:22;;;;;;;9.55;4.53;;;6.80;99.90;;;;;;5057088;28;20096;-83
2023/05/19 02:31:48;;;;;;;6.30;3.45;;;6.80;99.90;;;;;;5022752;28;20140;-83
2023/05/19 02:34:13;;;;;;;6.55;3.00;;;6.80;99.90;;;;;;5047367;28;20036;-84
2023/05/19 02:36:43;;;;;;;5.20;3.10;;;6.90;99.90;;;;;;5080349;28;20045;-84
2023/05/19 02:39:10;;;;;;;6.13;3.63;;;6.90;99.90;;;;;;5059242;28;20028;-83
2023/05/19 02:41:36;;;;;;;8.40;4.75;;;6.90;99.90;;;;;;5058567;28;20032;-84
2023/05/19 02:44:02;;;;;;;12.60;6.03;;;6.80;99.90;;;;;;5058707;28;20143;-84
2023/05/19 02:46:28;;;;;;;27.73;13.27;;;6.90;99.90;;;;;;5058598;28;20107;-84
2023/05/19 02:48:53;;;;;;;27.05;14.57;;;6.90;99.90;;;;;;5076436;28;20047;-84
2023/05/19 02:51:19;;;;;;;22.58;12.18;;;6.90;99.90;;;;;;5041832;28;20051;-83
2023/05/19 02:53:45;;;;;;;18.83;10.20;;;7.00;99.90;;;;;;5042062;28;20037;-83
2023/05/19 02:56:10;;;;;;;14.15;7.18;;;6.90;99.90;;;;;;5042402;28;20024;-84
2023/05/19 02:58:36;;;;;;;9.07;5.07;;;6.90;99.90;;;;;;5050387;28;20085;-83
2023/05/19 03:01:02;;;;;;;7.47;4.63;;;7.00;99.90;;;;;;5022453;28;20083;-83
2023/05/19 03:03:27;;;;;;;5.45;3.38;;;6.90;99.90;;;;;;5007181;28;20569;-84
2023/05/19 03:05:53;;;;;;;5.85;3.03;;;6.90;99.90;;;;;;5058632;28;20028;-83
2023/05/19 03:08:19;;;;;;;4.70;2.65;;;6.90;99.90;;;;;;5058864;28;20472;-84
2023/05/19 03:10:45;;;;;;;4.18;2.58;;;6.90;99.90;;;;;;5042188;28;20025;-84
2023/05/19 03:13:11;;;;;;;4.30;2.50;;;6.90;99.90;;;;;;5057965;28;20036;-83
2023/05/19 03:15:37;;;;;;;4.05;2.47;;;6.90;99.90;;;;;;5076618;28;20401;-84
2023/05/19 03:18:03;;;;;;;4.82;2.60;;;6.90;99.90;;;;;;5036895;28;20025;-83
2023/05/19 03:20:29;;;;;;;5.22;3.20;;;6.90;99.90;;;;;;5070768;28;20025;-84
2023/05/19 03:22:56;;;;;;;5.57;3.10;;;6.80;99.90;;;;;;5025022;28;20033;-84
2023/05/19 03:25:22;;;;;;;6.47;3.72;;;6.80;99.90;;;;;;5057439;28;20052;-84
2023/05/19 03:27:47;;;;;;;7.32;3.88;;;6.80;99.90;;;;;;5052227;28;20110;-84
2023/05/19 03:30:14;;;;;;;4.95;3.03;;;6.80;99.90;;;;;;5025172;28;20033;-83
2023/05/19 03:32:39;;;;;;;4.75;3.38;;;6.80;99.90;;;;;;5075586;28;20028;-84
2023/05/19 03:35:06;;;;;;;4.53;2.70;;;6.80;99.90;;;;;;5081031;28;20074;-83
2023/05/19 03:37:32;;;;;;;4.07;2.70;;;6.80;99.90;;;;;;5037750;28;20083;-84
2023/05/19 03:39:58;;;;;;;7.55;3.20;;;6.80;99.90;;;;;;5050103;28;20392;-84
2023/05/19 03:42:24;;;;;;;6.50;3.05;;;6.80;99.90;;;;;;5057505;28;20029;-84
2023/05/19 03:44:50;;;;;;;5.25;3.20;;;6.80;99.90;;;;;;5057439;28;20067;-84
2023/05/19 03:47:16;;;;;;;5.35;3.47;;;6.90;99.90;;;;;;5041200;28;20029;-84
2023/05/19 03:49:41;;;;;;;7.35;4.70;;;6.80;99.90;;;;;;5057822;28;20021;-84
2023/05/19 03:52:08;;;;;;;6.13;3.88;;;6.80;99.90;;;;;;5037892;28;20040;-83
2023/05/19 03:54:34;;;;;;;4.70;2.92;;;6.80;99.90;;;;;;5052487;28;20037;-83
2023/05/19 03:57:01;;;;;;;5.28;3.00;;;6.70;99.90;;;;;;5073669;28;20416;-83
2023/05/19 03:59:27;;;;;;;5.53;3.00;;;6.70;99.90;;;;;;5057797;28;20028;-83
2023/05/19 04:01:52;;;;;;;7.68;4.47;;;6.70;99.90;;;;;;5041401;28;20035;-84
2023/05/19 04:04:18;;;;;;;5.68;4.10;;;6.70;99.90;;;;;;5041314;28;20098;-83
2023/05/19 04:06:44;;;;;;;7.75;4.10;;;6.70;99.90;;;;;;5075987;28;20063;-84
2023/05/19 04:09:14;;;;;;;6.72;3.88;;;6.70;99.90;;;;;;5024587;28;20024;-84
2023/05/19 04:11:40;;;;;;;5.07;3.33;;;6.70;99.90;;;;;;5058477;28;20021;-78
2023/05/19 04:14:07;;;;;;;4.85;3.20;;;6.70;99.90;;;;;;5059560;28;20534;-78
2023/05/19 04:16:33;;;;;;;4.50;3.17;;;6.70;99.90;;;;;;5076753;28;20082;-78
2023/05/19 04:18:58;;;;;;;5.03;2.83;;;6.80;99.90;;;;;;5075479;28;20025;-78
2023/05/19 04:21:24;;;;;;;5.10;2.90;;;6.80;99.90;;;;;;5075117;28;20025;-78
2023/05/19 04:23:50;;;;;;;5.72;2.92;;;6.80;99.90;;;;;;5057089;28;20127;-78
2023/05/19 04:26:18;;;;;;;3.72;2.55;;;6.80;99.90;;;;;;5075488;28;20029;-79
2023/05/19 04:28:43;;;;;;;5.43;3.10;;;6.80;99.90;;;;;;5075502;28;20058;-79
2023/05/19 04:31:11;;;;;;;3.67;2.40;;;6.90;99.90;;;;;;5080542;28;20107;-79
2023/05/19 04:33:37;;;;;;;5.50;2.88;;;6.90;99.90;;;;;;5085329;28;20504;-78
2023/05/19 04:36:04;;;;;;;5.40;2.70;;;6.90;99.90;;;;;;5075431;28;20043;-78
2023/05/19 04:38:30;;;;;;;5.05;2.92;;;7.00;99.90;;;;;;5056011;28;20037;-79
2023/05/19 04:40:55;;;;;;;7.25;3.03;;;7.00;99.90;;;;;;5075678;28;20365;-78
2023/05/19 04:43:21;;;;;;;5.68;3.10;;;7.00;99.90;;;;;;5038857;28;20033;-80
2023/05/19 04:45:50;;;;;;;5.38;3.38;;;7.10;99.90;;;;;;5057796;28;20040;-78
2023/05/19 04:48:15;;;;;;;4.05;3.53;;;7.10;99.90;;;;;;5038211;28;20033;-78
2023/05/19 04:50:41;;;;;;;3.88;2.78;;;7.10;99.90;;;;;;5075387;28;20458;-78
2023/05/19 04:53:08;;;;;;;5.30;3.10;;;7.10;99.90;;;;;;5057863;28;20102;-78
2023/05/19 04:55:34;;;;;;;5.65;3.25;;;7.20;99.90;;;;;;5076277;28;20056;-78
2023/05/19 04:57:59;;;;;;;5.63;3.53;;;7.20;99.90;;;;;;5041125;28;20036;-78
2023/05/19 05:00:25;;;;;;;5.65;3.58;;;7.30;99.90;;;;;;5075309;28;20024;-79
2023/05/19 05:02:51;;;;;;;6.45;3.30;;;7.30;99.90;;;;;;5075383;28;20033;-78
2023/05/19 05:05:17;;;;;;;4.88;3.30;;;7.30;99.90;;;;;;5040796;28;20032;-78
2023/05/19 05:07:42;;;;;;;7.50;4.45;;;7.30;99.90;;;;;;5074886;28;20481;-78
2023/05/19 05:10:09;;;;;;;6.75;4.13;;;7.40;99.90;;;;;;5074886;28;20386;-78
2023/05/19 05:12:35;;;;;;;5.35;3.47;;;7.40;99.90;;;;;;5057310;28;20033;-78
2023/05/19 05:15:00;;;;;;;6.05;3.78;;;7.40;99.90;;;;;;5056807;28;20041;-79
2023/05/19 05:17:27;;;;;;;5.57;3.88;;;7.50;99.90;;;;;;5075320;28;20417;-79
2023/05/19 05:19:53;;;;;;;4.97;2.97;;;7.50;99.90;;;;;;5040531;28;20029;-78
2023/05/19 05:22:19;;;;;;;5.85;3.70;;;7.50;99.90;;;;;;5056998;28;20112;-79
2023/05/19 05:24:45;;;;;;;6.20;3.72;;;7.50;99.90;;;;;;5054804;28;20389;-78
2023/05/19 05:27:12;;;;;;;5.30;3.45;;;7.60;99.90;;;;;;5042306;28;20032;-78
2023/05/19 05:29:37;;;;;;;5.82;3.17;;;7.60;99.90;;;;;;5036955;28;20029;-80
2023/05/19 05:32:03;;;;;;;5.60;3.55;;;7.70;99.90;;;;;;5068549;28;20078;-80
2023/05/19 05:34:29;;;;;;;5.57;3.70;;;7.70;99.90;;;;;;5073469;28;20025;-79
2023/05/19 05:36:55;;;;;;;5.93;3.28;;;7.80;99.90;;;;;;5039994;28;20036;-79
2023/05/19 05:39:20;;;;;;;8.95;4.93;;;7.80;99.90;;;;;;5056945;28;20063;-79
2023/05/19 05:41:46;;;;;;;6.28;3.95;;;7.90;99.90;;;;;;5056915;28;20075;-79
2023/05/19 05:44:12;;;;;;;9.40;4.03;;;8.00;99.90;;;;;;5055945;28;20373;-80
2023/05/19 05:46:38;;;;;;;5.47;3.80;;;8.00;99.90;;;;;;5074114;28;20035;-80
2023/05/19 05:49:03;;;;;;;9.95;3.58;;;8.00;99.90;;;;;;5075246;28;20036;-81
2023/05/19 05:51:31;;;;;;;5.13;3.38;;;8.10;99.90;;;;;;5078292;28;20020;-81
2023/05/19 05:53:58;;;;;;;5.10;3.65;;;8.20;99.90;;;;;;5067932;28;20038;-81
2023/05/19 05:56:25;;;;;;;6.18;3.50;;;8.20;99.90;;;;;;5048291;28;20032;-81
2023/05/19 05:58:51;;;;;;;7.75;3.55;;;8.20;99.90;;;;;;5078303;28;20028;-81
2023/05/19 06:01:16;;;;;;;6.43;3.90;;;8.20;99.90;;;;;;5054605;28;20507;-82
2023/05/19 06:03:43;;;;;;;10.10;6.78;;;8.20;99.90;;;;;;5065685;28;20028;-81
2023/05/19 06:06:12;;;;;;;9.90;6.32;;;8.30;99.90;;;;;;5077925;28;20056;-81
2023/05/19 06:08:37;;;;;;;8.55;5.53;;;8.40;99.90;;;;;;5059469;28;20112;-81
2023/05/19 06:11:09;;;;;;;7.40;4.93;;;8.50;99.90;;;;;;5062000;28;20048;-78
2023/05/19 06:13:35;;;;;;;6.55;3.92;;;8.60;99.90;;;;;;5043831;28;20074;-79
2023/05/19 06:16:01;;;;;;;5.38;3.83;;;8.80;99.90;;;;;;5077923;28;20028;-78
2023/05/19 06:18:27;;;;;;;5.00;3.53;;;8.80;99.90;;;;;;5078462;28;20039;-79
2023/05/19 06:20:53;;;;;;;6.25;3.83;;;8.90;99.90;;;;;;5060516;28;20078;-78
2023/05/19 06:23:19;;;;;;;7.72;3.97;;;8.90;99.90;;;;;;5060426;28;20028;-78
2023/05/19 06:25:44;;;;;;;6.43;3.53;;;9.00;99.90;;;;;;5077481;28;20024;-79
2023/05/19 06:28:10;;;;;;;5.45;3.60;;;9.00;99.90;;;;;;5074343;28;20108;-78
2023/05/19 06:30:36;;;;;;;5.30;3.70;;;9.10;99.90;;;;;;5059106;28;20545;-79
2023/05/19 06:33:02;;;;;;;7.63;3.30;;;9.20;99.90;;;;;;5042582;28;20024;-79
2023/05/19 06:35:29;;;;;;;6.88;3.60;;;9.30;99.90;;;;;;5077898;28;20025;-79
2023/05/19 06:37:55;;;;;;;4.22;3.13;;;9.30;99.90;;;;;;5076168;28;20063;-79
2023/05/19 06:40:24;;;;;;;6.50;3.50;;;9.50;99.90;;;;;;5075923;28;20059;-79
2023/05/19 06:42:50;;;;;;;5.68;3.40;;;9.50;99.90;;;;;;5075526;28;20060;-79
2023/05/19 06:45:15;;;;;;;6.88;3.20;;;9.70;99.90;;;;;;5075762;28;20052;-79
2023/05/19 06:47:41;;;;;;;5.57;3.00;;;9.90;99.90;;;;;;5058379;28;20392;-79
2023/05/19 06:50:10;;;;;;;6.97;4.22;;;10.10;99.90;;;;;;5057846;28;20029;-79
2023/05/19 06:52:36;;;;;;;5.38;3.40;;;10.30;99.90;;;;;;5042337;28;20074;-79
2023/05/19 06:55:01;;;;;;;7.13;3.60;;;10.30;99.90;;;;;;5060120;28;20032;-79
2023/05/19 06:57:27;;;;;;;7.28;3.88;;;10.40;99.90;;;;;;5077534;28;20043;-79
2023/05/19 06:59:53;;;;;;;5.72;3.38;;;10.40;99.90;;;;;;5076258;28;20476;-79
2023/05/19 07:02:18;;;;;;;7.35;3.63;;;10.50;99.90;;;;;;5077718;28;20477;-79
2023/05/19 07:04:44;;;;;;;7.32;3.92;;;10.50;99.90;;;;;;5077426;28;20549;-79
2023/05/19 07:07:10;;;;;;;4.88;3.95;;;10.50;99.90;;;;;;5043123;28;20123;-79
2023/05/19 07:09:36;;;;;;;6.30;3.60;;;10.50;99.90;;;;;;5077378;28;20412;-79
2023/05/19 07:12:01;;;;;;;6.35;4.25;;;10.50;99.90;;;;;;5075843;28;20029;-79
2023/05/19 07:14:27;;;;;;;5.00;3.55;;;10.60;99.90;;;;;;5076847;28;20025;-79
2023/05/19 07:16:53;;;;;;;5.65;3.65;;;10.60;99.90;;;;;;5059590;28;20024;-79
2023/05/19 07:19:18;;;;;;;5.65;3.75;;;10.60;99.90;;;;;;5059024;28;20535;-79
2023/05/19 07:21:47;;;;;;;6.07;3.60;;;10.70;99.90;;;;;;5077240;28;20495;-79
2023/05/19 07:24:13;;;;;;;5.90;3.88;;;10.70;99.90;;;;;;5042405;28;20028;-79
2023/05/19 07:26:39;;;;;;;6.35;3.90;;;10.80;99.90;;;;;;5042521;28;20029;-79
2023/05/19 07:29:05;;;;;;;10.25;4.85;;;10.90;99.90;;;;;;5059268;28;20074;-79
2023/05/19 07:31:31;;;;;;;9.75;5.35;;;11.00;99.90;;;;;;5085236;28;20028;-79
2023/05/19 07:33:57;;;;;;;10.30;5.00;;;11.10;99.90;;;;;;5097672;28;20058;-79
2023/05/19 07:36:22;;;;;;;6.43;4.00;;;11.20;99.90;;;;;;5077064;28;20481;-79
2023/05/19 07:38:48;;;;;;;7.78;4.40;;;11.20;99.90;;;;;;5061778;28;20017;-79
2023/05/19 07:41:14;;;;;;;7.13;4.22;;;11.40;99.90;;;;;;5049857;28;20033;-79
2023/05/19 07:43:40;;;;;;;6.65;4.72;;;11.60;99.90;;;;;;5041140;28;20033;-79
2023/05/19 07:46:05;;;;;;;9.23;5.72;;;11.70;99.90;;;;;;5040950;28;20110;-79
2023/05/19 07:48:31;;;;;;;5.50;3.88;;;11.90;99.90;;;;;;5038956;28;20538;-79
2023/05/19 07:50:57;;;;;;;6.00;3.40;;;12.00;99.90;;;;;;5065978;28;20040;-79
2023/05/19 07:53:22;;;;;;;5.05;3.00;;;12.00;99.90;;;;;;5039471;28;20036;-79
2023/05/19 07:55:49;;;;;;;5.43;2.97;;;12.10;99.90;;;;;;5039914;28;20059;-79
2023/05/19 07:58:14;;;;;;;4.80;2.50;;;12.10;99.90;;;;;;5056681;28;20029;-79
2023/05/19 08:00:44;;;;;;;3.97;2.40;;;12.00;99.90;;;;;;5056719;28;20032;-79
2023/05/19 08:03:11;;;;;;;6.68;2.40;;;12.10;99.90;;;;;;5039993;28;20025;-79
2023/05/19 08:05:37;;;;;;;3.47;2.28;;;12.30;99.90;;;;;;5072879;28;20032;-79
2023/05/19 08:08:03;;;;;;;4.45;2.80;;;12.50;99.90;;;;;;5094753;28;20020;-79
2023/05/19 08:10:29;;;;;;;4.00;2.33;;;12.80;99.90;;;;;;5071253;28;20077;-79
2023/05/19 08:12:54;;;;;;;9.40;3.88;;;13.00;99.90;;;;;;5066857;28;20020;-79
2023/05/19 08:15:20;;;;;;;12.93;4.30;;;13.20;99.90;;;;;;5041527;28;20033;-79
2023/05/19 08:17:46;;;;;;;8.25;2.60;;;13.20;99.90;;;;;;5050305;28;20115;-79
2023/05/19 08:20:12;;;;;;;5.28;2.30;;;13.30;99.90;;;;;;5073661;28;20028;-79
2023/05/19 08:22:38;;;;;;;2.70;1.70;;;13.30;99.90;;;;;;5057784;28;20028;-79
2023/05/19 08:25:05;;;;;;;4.40;1.98;;;13.30;99.90;;;;;;5073541;28;20492;-78
2023/05/19 08:27:31;;;;;;;5.20;2.30;;;13.40;99.90;;;;;;5053143;28;20485;-79
2023/05/19 08:29:57;;;;;;;4.18;2.33;;;13.40;99.90;;;;;;5065644;28;20021;-79
2023/05/19 08:32:23;;;;;;;4.22;2.10;;;13.40;99.90;;;;;;5067809;28;20031;-79
2023/05/19 08:34:49;;;;;;;4.30;2.00;;;13.40;99.90;;;;;;5026623;28;20078;-79
2023/05/19 08:37:15;;;;;;;3.25;2.10;;;13.40;99.90;;;;;;5042592;28;20505;-79
2023/05/19 08:39:40;;;;;;;3.33;2.40;;;13.40;99.90;;;;;;5060818;28;20033;-78
2023/05/19 08:42:08;;;;;;;4.28;2.38;;;13.30;99.90;;;;;;5057994;28;20401;-79
2023/05/19 08:44:35;;;;;;;4.82;2.30;;;13.30;99.90;;;;;;5065556;28;20021;-79
2023/05/19 08:47:11;;;;;;;3.72;2.17;;;13.30;99.90;;;;;;5068845;28;20055;-79
2023/05/19 08:49:45;;;;;;;4.28;2.28;;;13.30;99.90;;;;;;5039328;28;20424;-79
2023/05/19 08:52:20;;;;;;;4.28;2.42;;;13.40;99.90;;;;;;5068812;28;20024;-79
2023/05/19 08:54:54;;;;;;;5.25;2.28;;;13.40;99.90;;;;;;5059164;28;20119;-78
2023/05/19 08:57:23;;;;;;;4.00;2.95;;;13.50;99.90;;;;;;5051184;28;20048;-79
2023/05/19 08:59:51;;;;;;;6.65;5.38;;;13.60;99.90;;;;;;5050315;28;20021;-79
2023/05/19 09:02:18;;;;;;;6.95;4.90;;;13.70;99.90;;;;;;5060780;28;20021;-79
2023/05/19 09:04:46;;;;;;;8.27;4.95;;;13.70;99.90;;;;;;5069362;28;20068;-79
2023/05/19 09:07:15;;;;;;;6.25;3.75;;;13.90;99.90;;;;;;5066589;28;20103;-79
2023/05/19 09:09:42;;;;;;;8.68;4.47;;;14.10;99.90;;;;;;5058747;28;20033;-79
2023/05/19 09:12:13;;;;;;;6.00;4.32;;;14.30;99.90;;;;;;5047220;28;20371;-79
2023/05/19 09:14:38;;;;;;;4.68;3.40;;;14.60;99.90;;;;;;5053768;28;20040;-79
2023/05/19 09:17:05;;;;;;;5.70;3.78;;;14.90;99.90;;;;;;5062648;28;20029;-79
2023/05/19 09:19:30;;;;;;;3.83;2.65;;;15.20;99.90;;;;;;5054013;28;20036;-79
2023/05/19 09:22:02;;;;;;;4.07;2.83;;;15.50;99.90;;;;;;5067948;28;20024;-78
2023/05/19 09:24:27;;;;;;;;;;;15.60;99.90;;;;;;5056524;28;20052;-79
2023/05/19 09:26:57;;;;;;;6.00;3.30;;;15.80;99.90;;;;;;5058260;28;19970;-78
2023/05/19 09:29:24;;;;;;;4.53;3.00;;;15.90;99.90;;;;;;5076604;28;20013;-79
2023/05/19 09:31:52;;;;;;;6.60;3.78;;;16.00;99.90;;;;;;5055564;28;20266;-79
2023/05/19 09:34:20;;;;;;;8.73;3.60;;;16.00;99.90;;;;;;5067800;28;20386;-78
2023/05/19 09:36:50;;;;;;;5.95;3.30;;;15.90;99.90;;;;;;5064232;28;20025;-79
2023/05/19 09:39:17;;;;;;;7.10;2.93;;;15.80;99.90;;;;;;5056499;28;20025;-79
2023/05/19 09:41:44;;;;;;;4.28;2.92;;;15.90;99.90;;;;;;5076767;28;20024;-79
2023/05/19 09:44:22;;;;;;;7.40;3.30;;;16.00;99.90;;;;;;5072556;28;20028;-79
2023/05/19 09:46:50;;;;;;;5.63;3.38;;;16.20;99.90;;;;;;5043555;28;20025;-79
2023/05/19 09:49:24;;;;;;;4.90;2.97;;;16.30;99.90;;;;;;5076496;28;20020;-79
2023/05/19 09:51:57;;;;;;;4.68;2.28;;;16.40;99.90;;;;;;5057961;28;20029;-79
2023/05/19 09:54:25;;;;;;;4.55;2.75;;;16.50;99.90;;;;;;5075678;28;20121;-79
2023/05/19 09:57:02;;;;;;;5.35;2.55;;;16.70;99.90;;;;;;5058224;28;20033;-79
2023/05/19 09:59:29;;;;;;;5.63;3.03;;;16.90;99.90;;;;;;5076191;28;20048;-79
2023/05/19 10:01:57;;;;;;;3.78;2.80;;;17.10;99.90;;;;;;5076419;28;20025;-79
2023/05/19 10:04:25;;;;;;;4.07;2.47;;;17.20;99.90;;;;;;5057233;28;20024;-79
2023/05/19 10:06:54;;;;;;;5.63;3.00;;;17.40;99.90;;;;;;5064676;28;20495;-79
2023/05/19 10:09:24;;;;;;;7.55;2.97;;;17.40;99.90;;;;;;5069854;28;20028;-78
2023/05/19 10:11:55;;;;;;;5.18;2.55;;;17.50;99.90;;;;;;5057619;28;20507;-78
2023/05/19 10:14:25;;;;;;;6.60;2.40;;;17.50;99.90;;;;;;5075470;28;20469;-78
2023/05/19 10:16:52;;;;;;;4.22;2.30;;;17.60;99.90;;;;;;5040346;28;20039;-78
2023/05/19 10:19:21;;;;;;;3.33;2.33;;;17.70;99.90;;;;;;5060142;28;20485;-78
2023/05/19 10:21:48;;;;;;;3.85;1.92;;;17.90;99.90;;;;;;5054269;28;20025;-78
2023/05/19 10:24:14;;;;;;;3.88;1.88;;;18.00;99.90;;;;;;5070533;28;20033;-78
2023/05/19 10:26:43;;;;;;;4.53;2.00;;;18.10;99.90;;;;;;5074127;28;20031;-78
2023/05/19 10:29:10;;;;;;;3.25;1.67;;;18.30;99.90;;;;;;5074442;28;20063;-78
2023/05/19 10:31:39;;;;;;;4.18;2.10;;;18.40;99.90;;;;;;5074430;28;20465;-78
2023/05/19 10:34:23;;;;;;;4.22;1.85;;;18.40;99.90;;;;;;5074593;28;20111;-80
2023/05/19 10:36:55;;;;;;;3.13;1.80;;;18.40;99.90;;;;;;5088903;28;20132;-79
2023/05/19 10:39:26;;;;;;;2.78;1.85;;;18.50;99.90;;;;;;5066908;28;20032;-79
2023/05/19 10:42:12;;;;;;;3.28;1.70;;;18.60;99.90;;;;;;5052482;28;20017;-78
2023/05/19 10:44:41;;;;;;;4.57;1.63;;;18.80;99.90;;;;;;5066430;28;20017;-78
2023/05/19 10:47:10;;;;;;;3.33;1.50;;;18.80;99.60;;;;;;5061402;28;20393;-78
2023/05/19 10:49:38;;;;;;;2.67;1.60;;;18.70;99.90;;;;;;5045886;28;20139;-78
2023/05/19 10:52:21;;;;;;;2.53;1.50;;;18.70;99.90;;;;;;5059483;28;20431;-78
2023/05/19 10:54:47;;;;;;;2.40;1.40;;;18.60;99.60;;;;;;5059251;28;20056;-78
2023/05/19 10:57:15;;;;;;;2.88;1.45;;;18.50;98.60;;;;;;5077175;28;20462;-78
2023/05/19 10:59:40;;;;;;;3.45;1.52;;;18.50;99.20;;;;;;5077525;28;20029;-78
2023/05/19 11:02:07;;;;;;;4.32;1.60;;;18.50;98.90;;;;;;5059410;28;20020;-78
2023/05/19 11:04:46;;;;;;;3.00;2.00;;;18.50;98.70;;;;;;5077375;28;20025;-78
2023/05/19 11:07:18;;;;;;;3.40;1.60;;;18.60;99.60;;;;;;5076420;28;20115;-78
2023/05/19 11:09:51;;;;;;;2.30;1.48;;;18.50;99.90;;;;;;5077812;28;20027;-78
2023/05/19 11:12:23;;;;;;;3.17;1.50;;;18.50;99.40;;;;;;5052153;28;20078;-79
2023/05/19 11:14:56;;;;;;;3.10;1.77;;;18.60;99.70;;;;;;5064914;28;20048;-78
2023/05/19 11:17:24;;;;;;;3.70;1.55;;;18.70;99.50;;;;;;5039065;28;20025;-78
2023/05/19 11:19:58;;;;;;;2.40;1.48;;;18.70;97.40;;;;;;5058196;28;20029;-78
2023/05/19 11:22:25;;;;;;;2.45;1.50;;;18.70;98.50;;;;;;5071163;28;20427;-78
2023/05/19 11:24:53;;;;;;;5.43;1.80;;;18.80;97.10;;;;;;5042309;28;20032;-78
2023/05/19 11:27:33;;;;;;;3.80;1.55;;;18.80;97.30;;;;;;5065115;28;20025;-78
2023/05/19 11:30:13;;;;;;;2.35;1.50;;;18.70;96.30;;;;;;5063238;28;20021;-78
2023/05/19 11:32:42;;;;;;;4.15;1.58;;;18.60;97.00;;;;;;5061540;28;20024;-78
2023/05/19 11:35:09;;;;;;;2.17;1.50;;;18.60;96.70;;;;;;5068794;28;20137;-78
2023/05/19 11:37:35;;;;;;;4.18;1.63;;;18.50;97.50;;;;;;5074578;28;20103;-78
2023/05/19 11:40:08;;;;;;;3.33;1.52;;;18.50;97.80;;;;;;5057221;28;20028;-78
2023/05/19 11:42:34;;;;;;;2.40;1.70;;;18.50;97.30;;;;;;5057691;28;20473;-78
2023/05/19 11:45:00;;;;;;;2.75;1.50;;;18.50;97.00;;;;;;5040217;28;20041;-78
2023/05/19 11:47:27;;;;;;;3.30;1.67;;;18.60;97.30;;;;;;5059536;28;20362;-78
2023/05/19 11:49:55;;;;;;;6.00;2.10;;;18.60;97.20;;;;;;5066522;28;20060;-79
2023/05/19 11:52:26;;;;;;;5.47;1.80;;;18.50;96.80;;;;;;5068970;28;20052;-78
2023/05/19 11:54:51;;;;;;;3.08;1.70;;;18.50;97.80;;;;;;5046353;28;20032;-78
2023/05/19 11:57:18;;;;;;;2.58;1.80;;;18.40;97.90;;;;;;5065044;28;20033;-78
2023/05/19 11:59:46;;;;;;;3.30;1.95;;;18.40;98.70;;;;;;5074892;28;20538;-79
2023/05/19 12:02:15;;;;;;;2.80;1.70;;;18.60;98.60;;;;;;5066040;28;20055;-78
2023/05/19 12:04:40;;;;;;;5.20;1.98;;;18.70;98.70;;;;;;5063179;28;20025;-78
2023/05/19 12:07:07;;;;;;;4.70;1.77;;;18.80;97.60;;;;;;5038091;28;20087;-78
2023/05/19 12:09:32;;;;;;;4.18;2.00;;;18.90;98.60;;;;;;5053867;28;20033;-79
2023/05/19 12:11:59;;;;;;;3.30;1.52;;;19.10;96.80;;;;;;5047675;28;20025;-78
2023/05/19 12:14:25;;;;;;;6.38;2.10;;;19.30;96.00;;;;;;5049700;28;20559;-78
2023/05/19 12:16:51;;;;;;;3.63;1.58;;;19.30;97.30;;;;;;5065112;28;20036;-78
2023/05/19 12:19:17;;;;;;;4.50;1.73;;;19.50;97.00;;;;;;5067928;28;20028;-79
2023/05/19 12:21:43;;;;;;;4.35;2.13;;;19.70;96.70;;;;;;5018241;28;20029;-79
2023/05/19 12:24:09;;;;;;;4.43;2.00;;;19.90;95.50;;;;;;5045329;28;20210;-79
2023/05/19 12:26:36;;;;;;;2.78;1.75;;;20.00;94.70;;;;;;5060508;28;20384;-79
2023/05/19 12:29:05;;;;;;;2.50;1.73;;;20.10;94.30;;;;;;5063427;28;20021;-79
2023/05/19 12:31:31;;;;;;;4.80;1.90;;;20.10;94.90;;;;;;5049147;28;20029;-79
2023/05/19 12:33:57;;;;;;;6.55;2.35;;;20.00;95.60;;;;;;5049434;28;20029;-79
2023/05/19 12:36:24;;;;;;;2.72;1.73;;;20.20;94.80;;;;;;5047011;28;20495;-79
2023/05/19 12:38:56;;;;;;;2.63;1.67;;;20.20;94.10;;;;;;5050280;28;20384;-79
2023/05/19 12:41:26;;;;;;;4.03;1.60;;;20.30;96.90;;;;;;5061758;28;20055;-79
2023/05/19 12:43:53;;;;;;;3.72;1.70;;;20.50;93.40;;;;;;5057767;28;20115;-79
2023/05/19 12:46:19;;;;;;;2.45;1.63;;;20.50;94.50;;;;;;5036595;28;20034;-79
2023/05/19 12:48:46;;;;;;;4.72;1.85;;;20.50;93.40;;;;;;5069355;28;20025;-78
2023/05/19 12:51:18;;;;;;;4.47;2.03;;;20.50;93.90;;;;;;5064131;28;20012;-79
2023/05/19 12:53:45;;;;;;;4.45;1.80;;;20.50;91.90;;;;;;5063104;28;20116;-79
2023/05/19 12:56:12;;;;;;;3.03;1.77;;;20.50;93.20;;;;;;5056839;28;20024;-79